sensor_id;sensor_type;location;lat;lon;timestamp;P1;durP1;ratioP1;P2;durP2;ratioP2
66727;SDS011;53641;44.274;19.890;2022-11-20T00:01:32;29.33;;;20.13;;
66727;SDS011;53641;44.274;19.890;2022-11-20T00:03:58;27.02;;;18.10;;
66727;SDS011;53641;44.274;19.890;2022-11-20T00:06:24;29.23;;;19.50;;
66727;SDS011;53641;44.274;19.890;2022-11-20T00:08:53;34.67;;;24.33;;
66727;SDS011;53641;44.274;19.890;2022-11-20T00:11:21;44.83;;;29.85;;
66727;SDS011;53641;44.274;19.890;2022-11-20T00:13:48;45.60;;;30.05;;
66727;SDS011;53641;44.274;19.890;2022-11-20T00:16:16;41.05;;;28.35;;
66727;SDS011;53641;44.274;19.890;2022-11-20T00:18:43;42.50;;;27.55;;
66727;SDS011;53641;44.274;19.890;2022-11-20T00:21:16;45.10;;;29.88;;
66727;SDS011;53641;44.274;19.890;2022-11-20T00:23:44;41.38;;;27.40;;
66727;SDS011;53641;44.274;19.890;2022-11-20T00:26:11;29.23;;;20.05;;
66727;SDS011;53641;44.274;19.890;2022-11-20T00:28:41;37.88;;;24.40;;
66727;SDS011;53641;44.274;19.890;2022-11-20T00:31:09;42.60;;;27.05;;
66727;SDS011;53641;44.274;19.890;2022-11-20T00:33:35;28.98;;;20.75;;
66727;SDS011;53641;44.274;19.890;2022-11-20T00:36:05;31.45;;;21.25;;
66727;SDS011;53641;44.274;19.890;2022-11-20T00:38:33;33.63;;;23.02;;
66727;SDS011;53641;44.274;19.890;2022-11-20T00:41:00;34.78;;;22.45;;
66727;SDS011;53641;44.274;19.890;2022-11-20T00:43:27;36.22;;;22.80;;
66727;SDS011;53641;44.274;19.890;2022-11-20T00:45:57;27.65;;;21.02;;
66727;SDS011;53641;44.274;19.890;2022-11-20T00:48:23;27.42;;;18.80;;
66727;SDS011;53641;44.274;19.890;2022-11-20T00:50:49;26.60;;;19.50;;
66727;SDS011;53641;44.274;19.890;2022-11-20T00:53:15;29.35;;;20.58;;
66727;SDS011;53641;44.274;19.890;2022-11-20T00:55:41;30.27;;;18.70;;
66727;SDS011;53641;44.274;19.890;2022-11-20T00:58:07;28.45;;;20.83;;
66727;SDS011;53641;44.274;19.890;2022-11-20T01:00:32;24.08;;;18.20;;
66727;SDS011;53641;44.274;19.890;2022-11-20T01:02:59;25.08;;;19.55;;
66727;SDS011;53641;44.274;19.890;2022-11-20T01:05:24;24.15;;;17.85;;
66727;SDS011;53641;44.274;19.890;2022-11-20T01:07:50;21.27;;;15.25;;
66727;SDS011;53641;44.274;19.890;2022-11-20T01:10:16;23.10;;;17.35;;
66727;SDS011;53641;44.274;19.890;2022-11-20T01:12:52;23.77;;;17.02;;
66727;SDS011;53641;44.274;19.890;2022-11-20T01:15:47;26.13;;;19.00;;
66727;SDS011;53641;44.274;19.890;2022-11-20T01:18:13;24.50;;;18.17;;
66727;SDS011;53641;44.274;19.890;2022-11-20T01:20:39;25.70;;;18.20;;
66727;SDS011;53641;44.274;19.890;2022-11-20T01:23:05;23.27;;;17.63;;
66727;SDS011;53641;44.274;19.890;2022-11-20T01:25:30;23.70;;;16.95;;
66727;SDS011;53641;44.274;19.890;2022-11-20T01:27:56;24.33;;;16.85;;
66727;SDS011;53641;44.274;19.890;2022-11-20T01:30:22;22.75;;;16.52;;
66727;SDS011;53641;44.274;19.890;2022-11-20T01:32:47;26.02;;;16.73;;
66727;SDS011;53641;44.274;19.890;2022-11-20T01:35:13;24.70;;;17.13;;
66727;SDS011;53641;44.274;19.890;2022-11-20T01:37:39;25.52;;;17.80;;
66727;SDS011;53641;44.274;19.890;2022-11-20T01:40:05;24.35;;;17.08;;
66727;SDS011;53641;44.274;19.890;2022-11-20T01:42:31;23.27;;;17.13;;
66727;SDS011;53641;44.274;19.890;2022-11-20T01:45:55;27.75;;;19.70;;
66727;SDS011;53641;44.274;19.890;2022-11-20T01:48:23;29.25;;;19.88;;
66727;SDS011;53641;44.274;19.890;2022-11-20T01:50:53;26.10;;;19.02;;
66727;SDS011;53641;44.274;19.890;2022-11-20T01:53:21;25.13;;;18.63;;
66727;SDS011;53641;44.274;19.890;2022-11-20T01:55:53;24.08;;;17.55;;
66727;SDS011;53641;44.274;19.890;2022-11-20T01:58:23;21.90;;;16.98;;
66727;SDS011;53641;44.274;19.890;2022-11-20T02:03:19;26.88;;;19.17;;
66727;SDS011;53641;44.274;19.890;2022-11-20T02:05:54;28.08;;;18.83;;
66727;SDS011;53641;44.274;19.890;2022-11-20T02:08:32;27.30;;;18.67;;
66727;SDS011;53641;44.274;19.890;2022-11-20T02:11:00;23.60;;;15.80;;
66727;SDS011;53641;44.274;19.890;2022-11-20T02:13:26;20.80;;;13.88;;
66727;SDS011;53641;44.274;19.890;2022-11-20T02:16:09;21.52;;;14.15;;
66727;SDS011;53641;44.274;19.890;2022-11-20T02:18:44;17.85;;;12.60;;
66727;SDS011;53641;44.274;19.890;2022-11-20T02:21:21;16.63;;;11.35;;
66727;SDS011;53641;44.274;19.890;2022-11-20T02:24:00;17.08;;;10.60;;
66727;SDS011;53641;44.274;19.890;2022-11-20T02:26:28;14.82;;;10.23;;
66727;SDS011;53641;44.274;19.890;2022-11-20T02:28:55;13.55;;;9.90;;
66727;SDS011;53641;44.274;19.890;2022-11-20T02:31:23;15.38;;;10.82;;
66727;SDS011;53641;44.274;19.890;2022-11-20T02:33:54;14.60;;;10.23;;
66727;SDS011;53641;44.274;19.890;2022-11-20T02:36:19;11.93;;;8.77;;
66727;SDS011;53641;44.274;19.890;2022-11-20T02:38:46;11.80;;;8.60;;
66727;SDS011;53641;44.274;19.890;2022-11-20T02:41:13;11.10;;;8.43;;
66727;SDS011;53641;44.274;19.890;2022-11-20T02:43:38;15.40;;;10.77;;
66727;SDS011;53641;44.274;19.890;2022-11-20T02:46:06;14.38;;;10.55;;
66727;SDS011;53641;44.274;19.890;2022-11-20T02:48:32;15.05;;;10.65;;
66727;SDS011;53641;44.274;19.890;2022-11-20T02:50:58;18.77;;;13.32;;
66727;SDS011;53641;44.274;19.890;2022-11-20T02:53:23;18.05;;;12.73;;
66727;SDS011;53641;44.274;19.890;2022-11-20T02:55:49;19.67;;;13.23;;
66727;SDS011;53641;44.274;19.890;2022-11-20T02:58:15;18.48;;;13.00;;
66727;SDS011;53641;44.274;19.890;2022-11-20T03:00:41;19.52;;;13.15;;
66727;SDS011;53641;44.274;19.890;2022-11-20T03:03:06;19.15;;;13.15;;
66727;SDS011;53641;44.274;19.890;2022-11-20T03:05:32;18.48;;;12.82;;
66727;SDS011;53641;44.274;19.890;2022-11-20T03:07:58;21.55;;;13.82;;
66727;SDS011;53641;44.274;19.890;2022-11-20T03:10:24;21.73;;;14.65;;
66727;SDS011;53641;44.274;19.890;2022-11-20T03:12:56;21.08;;;13.75;;
66727;SDS011;53641;44.274;19.890;2022-11-20T03:15:22;18.55;;;13.15;;
66727;SDS011;53641;44.274;19.890;2022-11-20T03:17:48;18.33;;;12.65;;
66727;SDS011;53641;44.274;19.890;2022-11-20T03:20:14;20.23;;;13.15;;
66727;SDS011;53641;44.274;19.890;2022-11-20T03:22:40;22.23;;;13.82;;
66727;SDS011;53641;44.274;19.890;2022-11-20T03:25:06;17.83;;;12.40;;
66727;SDS011;53641;44.274;19.890;2022-11-20T03:27:33;17.92;;;12.13;;
66727;SDS011;53641;44.274;19.890;2022-11-20T03:29:59;17.00;;;11.93;;
66727;SDS011;53641;44.274;19.890;2022-11-20T03:32:25;16.10;;;9.95;;
66727;SDS011;53641;44.274;19.890;2022-11-20T03:34:50;14.02;;;9.75;;
66727;SDS011;53641;44.274;19.890;2022-11-20T03:37:16;11.00;;;7.78;;
66727;SDS011;53641;44.274;19.890;2022-11-20T03:39:42;12.93;;;8.23;;
66727;SDS011;53641;44.274;19.890;2022-11-20T03:42:08;11.02;;;7.65;;
66727;SDS011;53641;44.274;19.890;2022-11-20T03:44:54;12.18;;;8.50;;
66727;SDS011;53641;44.274;19.890;2022-11-20T03:47:20;10.77;;;8.07;;
66727;SDS011;53641;44.274;19.890;2022-11-20T03:49:46;11.52;;;8.02;;
66727;SDS011;53641;44.274;19.890;2022-11-20T03:52:12;13.15;;;7.78;;
66727;SDS011;53641;44.274;19.890;2022-11-20T03:54:38;13.63;;;7.90;;
66727;SDS011;53641;44.274;19.890;2022-11-20T03:57:04;11.55;;;7.15;;
66727;SDS011;53641;44.274;19.890;2022-11-20T03:59:29;9.85;;;7.25;;
66727;SDS011;53641;44.274;19.890;2022-11-20T04:01:55;11.68;;;7.90;;
66727;SDS011;53641;44.274;19.890;2022-11-20T04:04:21;11.02;;;7.72;;
66727;SDS011;53641;44.274;19.890;2022-11-20T04:06:47;11.63;;;7.80;;
66727;SDS011;53641;44.274;19.890;2022-11-20T04:09:12;12.85;;;8.25;;
66727;SDS011;53641;44.274;19.890;2022-11-20T04:11:39;12.82;;;7.28;;
66727;SDS011;53641;44.274;19.890;2022-11-20T04:14:06;12.38;;;8.43;;
66727;SDS011;53641;44.274;19.890;2022-11-20T04:16:37;10.57;;;7.35;;
66727;SDS011;53641;44.274;19.890;2022-11-20T04:19:05;9.23;;;7.28;;
66727;SDS011;53641;44.274;19.890;2022-11-20T04:21:34;9.23;;;6.97;;
66727;SDS011;53641;44.274;19.890;2022-11-20T04:24:00;8.10;;;6.00;;
66727;SDS011;53641;44.274;19.890;2022-11-20T04:26:26;10.73;;;7.25;;
66727;SDS011;53641;44.274;19.890;2022-11-20T04:28:53;9.85;;;6.45;;
66727;SDS011;53641;44.274;19.890;2022-11-20T04:31:20;10.40;;;7.00;;
66727;SDS011;53641;44.274;19.890;2022-11-20T04:33:47;9.73;;;6.38;;
66727;SDS011;53641;44.274;19.890;2022-11-20T04:36:24;10.43;;;6.72;;
66727;SDS011;53641;44.274;19.890;2022-11-20T04:38:51;9.23;;;6.40;;
66727;SDS011;53641;44.274;19.890;2022-11-20T04:41:18;8.15;;;6.05;;
66727;SDS011;53641;44.274;19.890;2022-11-20T04:43:46;7.05;;;4.93;;
66727;SDS011;53641;44.274;19.890;2022-11-20T04:46:13;8.93;;;5.45;;
66727;SDS011;53641;44.274;19.890;2022-11-20T04:48:40;7.47;;;5.25;;
66727;SDS011;53641;44.274;19.890;2022-11-20T04:51:06;7.53;;;5.70;;
66727;SDS011;53641;44.274;19.890;2022-11-20T04:53:32;9.55;;;5.53;;
66727;SDS011;53641;44.274;19.890;2022-11-20T04:56:01;12.43;;;6.25;;
66727;SDS011;53641;44.274;19.890;2022-11-20T04:58:28;9.52;;;5.60;;
66727;SDS011;53641;44.274;19.890;2022-11-20T05:00:54;8.65;;;5.35;;
66727;SDS011;53641;44.274;19.890;2022-11-20T05:03:25;8.35;;;5.18;;
66727;SDS011;53641;44.274;19.890;2022-11-20T05:05:51;7.85;;;4.10;;
66727;SDS011;53641;44.274;19.890;2022-11-20T05:08:17;7.35;;;4.60;;
66727;SDS011;53641;44.274;19.890;2022-11-20T05:10:42;7.18;;;4.18;;
66727;SDS011;53641;44.274;19.890;2022-11-20T05:13:08;6.07;;;3.95;;
66727;SDS011;53641;44.274;19.890;2022-11-20T05:15:34;5.55;;;3.95;;
66727;SDS011;53641;44.274;19.890;2022-11-20T05:18:00;5.80;;;3.97;;
66727;SDS011;53641;44.274;19.890;2022-11-20T05:20:25;5.68;;;4.38;;
66727;SDS011;53641;44.274;19.890;2022-11-20T05:22:51;5.97;;;4.28;;
66727;SDS011;53641;44.274;19.890;2022-11-20T05:25:17;7.22;;;4.20;;
66727;SDS011;53641;44.274;19.890;2022-11-20T05:27:43;8.25;;;4.75;;
66727;SDS011;53641;44.274;19.890;2022-11-20T05:30:09;7.38;;;4.40;;
66727;SDS011;53641;44.274;19.890;2022-11-20T05:32:35;6.97;;;4.35;;
66727;SDS011;53641;44.274;19.890;2022-11-20T05:35:01;11.38;;;5.45;;
66727;SDS011;53641;44.274;19.890;2022-11-20T05:37:26;6.85;;;4.35;;
66727;SDS011;53641;44.274;19.890;2022-11-20T05:39:52;8.00;;;5.60;;
66727;SDS011;53641;44.274;19.890;2022-11-20T05:42:18;8.57;;;5.38;;
66727;SDS011;53641;44.274;19.890;2022-11-20T05:44:57;8.43;;;5.82;;
66727;SDS011;53641;44.274;19.890;2022-11-20T05:47:23;8.77;;;5.60;;
66727;SDS011;53641;44.274;19.890;2022-11-20T05:49:49;7.20;;;4.78;;
66727;SDS011;53641;44.274;19.890;2022-11-20T05:52:14;7.97;;;5.78;;
66727;SDS011;53641;44.274;19.890;2022-11-20T05:54:40;7.63;;;5.35;;
66727;SDS011;53641;44.274;19.890;2022-11-20T05:57:06;9.45;;;5.75;;
66727;SDS011;53641;44.274;19.890;2022-11-20T05:59:32;7.63;;;5.15;;
66727;SDS011;53641;44.274;19.890;2022-11-20T06:01:57;8.88;;;5.82;;
66727;SDS011;53641;44.274;19.890;2022-11-20T06:04:23;9.40;;;5.72;;
66727;SDS011;53641;44.274;19.890;2022-11-20T06:06:49;10.52;;;5.90;;
66727;SDS011;53641;44.274;19.890;2022-11-20T06:09:15;10.88;;;6.18;;
66727;SDS011;53641;44.274;19.890;2022-11-20T06:11:40;8.93;;;5.40;;
66727;SDS011;53641;44.274;19.890;2022-11-20T06:14:06;12.10;;;7.80;;
66727;SDS011;53641;44.274;19.890;2022-11-20T06:16:32;9.95;;;6.88;;
66727;SDS011;53641;44.274;19.890;2022-11-20T06:18:58;9.32;;;6.07;;
66727;SDS011;53641;44.274;19.890;2022-11-20T06:21:24;12.07;;;6.47;;
66727;SDS011;53641;44.274;19.890;2022-11-20T06:23:50;10.98;;;6.80;;
66727;SDS011;53641;44.274;19.890;2022-11-20T06:26:21;10.23;;;6.32;;
66727;SDS011;53641;44.274;19.890;2022-11-20T06:28:49;9.23;;;6.13;;
66727;SDS011;53641;44.274;19.890;2022-11-20T06:31:16;14.50;;;7.28;;
66727;SDS011;53641;44.274;19.890;2022-11-20T06:33:44;11.48;;;7.38;;
66727;SDS011;53641;44.274;19.890;2022-11-20T06:36:10;13.02;;;8.55;;
66727;SDS011;53641;44.274;19.890;2022-11-20T06:38:38;13.90;;;9.50;;
66727;SDS011;53641;44.274;19.890;2022-11-20T06:41:04;14.70;;;8.70;;
66727;SDS011;53641;44.274;19.890;2022-11-20T06:43:30;11.80;;;8.07;;
66727;SDS011;53641;44.274;19.890;2022-11-20T06:45:57;12.57;;;9.07;;
66727;SDS011;53641;44.274;19.890;2022-11-20T06:48:24;15.63;;;10.40;;
66727;SDS011;53641;44.274;19.890;2022-11-20T06:50:51;15.32;;;10.82;;
66727;SDS011;53641;44.274;19.890;2022-11-20T06:53:16;14.80;;;10.02;;
66727;SDS011;53641;44.274;19.890;2022-11-20T06:55:43;15.43;;;11.20;;
66727;SDS011;53641;44.274;19.890;2022-11-20T06:58:09;14.88;;;10.43;;
66727;SDS011;53641;44.274;19.890;2022-11-20T07:00:35;13.98;;;9.05;;
66727;SDS011;53641;44.274;19.890;2022-11-20T07:03:08;12.70;;;7.15;;
66727;SDS011;53641;44.274;19.890;2022-11-20T07:05:35;10.52;;;6.07;;
66727;SDS011;53641;44.274;19.890;2022-11-20T07:08:02;10.43;;;6.25;;
66727;SDS011;53641;44.274;19.890;2022-11-20T07:10:28;11.80;;;6.65;;
66727;SDS011;53641;44.274;19.890;2022-11-20T07:12:54;9.32;;;7.28;;
66727;SDS011;53641;44.274;19.890;2022-11-20T07:15:21;11.50;;;7.53;;
66727;SDS011;53641;44.274;19.890;2022-11-20T07:17:50;14.50;;;8.27;;
66727;SDS011;53641;44.274;19.890;2022-11-20T07:20:16;10.80;;;7.35;;
66727;SDS011;53641;44.274;19.890;2022-11-20T07:22:42;13.40;;;9.50;;
66727;SDS011;53641;44.274;19.890;2022-11-20T07:25:08;11.35;;;7.43;;
66727;SDS011;53641;44.274;19.890;2022-11-20T07:27:34;11.85;;;8.25;;
66727;SDS011;53641;44.274;19.890;2022-11-20T07:30:01;13.48;;;7.97;;
66727;SDS011;53641;44.274;19.890;2022-11-20T07:32:27;12.05;;;7.53;;
66727;SDS011;53641;44.274;19.890;2022-11-20T07:34:53;9.48;;;6.60;;
66727;SDS011;53641;44.274;19.890;2022-11-20T07:37:18;10.82;;;6.35;;
66727;SDS011;53641;44.274;19.890;2022-11-20T07:39:44;12.35;;;7.75;;
66727;SDS011;53641;44.274;19.890;2022-11-20T07:42:13;13.25;;;9.45;;
66727;SDS011;53641;44.274;19.890;2022-11-20T07:44:38;10.50;;;7.75;;
66727;SDS011;53641;44.274;19.890;2022-11-20T07:47:04;10.18;;;5.93;;
66727;SDS011;53641;44.274;19.890;2022-11-20T07:49:30;9.88;;;6.63;;
66727;SDS011;53641;44.274;19.890;2022-11-20T07:51:56;13.15;;;9.30;;
66727;SDS011;53641;44.274;19.890;2022-11-20T07:54:21;17.02;;;9.38;;
66727;SDS011;53641;44.274;19.890;2022-11-20T07:56:48;13.27;;;9.23;;
66727;SDS011;53641;44.274;19.890;2022-11-20T07:59:14;13.07;;;8.30;;
66727;SDS011;53641;44.274;19.890;2022-11-20T08:01:41;13.27;;;9.20;;
66727;SDS011;53641;44.274;19.890;2022-11-20T08:04:07;14.75;;;8.90;;
66727;SDS011;53641;44.274;19.890;2022-11-20T08:06:33;15.57;;;9.48;;
66727;SDS011;53641;44.274;19.890;2022-11-20T08:08:59;14.68;;;10.10;;
66727;SDS011;53641;44.274;19.890;2022-11-20T08:11:24;13.60;;;9.15;;
66727;SDS011;53641;44.274;19.890;2022-11-20T08:14:10;21.92;;;13.63;;
66727;SDS011;53641;44.274;19.890;2022-11-20T08:16:39;20.63;;;12.93;;
66727;SDS011;53641;44.274;19.890;2022-11-20T08:19:05;16.65;;;10.80;;
66727;SDS011;53641;44.274;19.890;2022-11-20T08:21:32;17.00;;;10.73;;
66727;SDS011;53641;44.274;19.890;2022-11-20T08:23:58;13.63;;;8.27;;
66727;SDS011;53641;44.274;19.890;2022-11-20T08:26:24;11.82;;;7.30;;
66727;SDS011;53641;44.274;19.890;2022-11-20T08:28:54;11.82;;;6.88;;
66727;SDS011;53641;44.274;19.890;2022-11-20T08:31:21;11.37;;;7.90;;
66727;SDS011;53641;44.274;19.890;2022-11-20T08:33:47;9.50;;;6.03;;
66727;SDS011;53641;44.274;19.890;2022-11-20T08:36:13;10.52;;;6.32;;
66727;SDS011;53641;44.274;19.890;2022-11-20T08:38:39;11.05;;;7.45;;
66727;SDS011;53641;44.274;19.890;2022-11-20T08:41:05;12.70;;;7.55;;
66727;SDS011;53641;44.274;19.890;2022-11-20T08:43:52;13.95;;;9.13;;
66727;SDS011;53641;44.274;19.890;2022-11-20T08:46:19;9.52;;;7.35;;
66727;SDS011;53641;44.274;19.890;2022-11-20T08:48:46;9.25;;;6.82;;
66727;SDS011;53641;44.274;19.890;2022-11-20T08:51:12;13.27;;;9.52;;
66727;SDS011;53641;44.274;19.890;2022-11-20T08:53:39;10.15;;;7.13;;
66727;SDS011;53641;44.274;19.890;2022-11-20T08:56:05;10.75;;;6.93;;
66727;SDS011;53641;44.274;19.890;2022-11-20T08:58:31;12.93;;;8.00;;
66727;SDS011;53641;44.274;19.890;2022-11-20T09:00:57;13.15;;;7.88;;
66727;SDS011;53641;44.274;19.890;2022-11-20T09:03:23;16.75;;;9.52;;
66727;SDS011;53641;44.274;19.890;2022-11-20T09:05:55;17.13;;;10.07;;
66727;SDS011;53641;44.274;19.890;2022-11-20T09:08:29;14.25;;;9.07;;
66727;SDS011;53641;44.274;19.890;2022-11-20T09:10:55;18.27;;;10.85;;
66727;SDS011;53641;44.274;19.890;2022-11-20T09:13:23;16.50;;;10.75;;
66727;SDS011;53641;44.274;19.890;2022-11-20T09:15:54;12.13;;;8.40;;
66727;SDS011;53641;44.274;19.890;2022-11-20T09:18:21;10.90;;;7.43;;
66727;SDS011;53641;44.274;19.890;2022-11-20T09:20:47;12.18;;;8.85;;
66727;SDS011;53641;44.274;19.890;2022-11-20T09:23:14;16.23;;;11.00;;
66727;SDS011;53641;44.274;19.890;2022-11-20T09:25:40;18.63;;;13.40;;
66727;SDS011;53641;44.274;19.890;2022-11-20T09:28:06;11.73;;;6.88;;
66727;SDS011;53641;44.274;19.890;2022-11-20T09:30:34;15.15;;;8.43;;
66727;SDS011;53641;44.274;19.890;2022-11-20T09:33:00;11.40;;;8.63;;
66727;SDS011;53641;44.274;19.890;2022-11-20T09:35:26;9.00;;;6.22;;
66727;SDS011;53641;44.274;19.890;2022-11-20T09:37:52;9.45;;;7.00;;
66727;SDS011;53641;44.274;19.890;2022-11-20T09:40:25;11.82;;;8.45;;
66727;SDS011;53641;44.274;19.890;2022-11-20T09:43:03;17.05;;;9.90;;
66727;SDS011;53641;44.274;19.890;2022-11-20T09:45:43;14.57;;;10.27;;
66727;SDS011;53641;44.274;19.890;2022-11-20T09:48:18;14.53;;;10.23;;
66727;SDS011;53641;44.274;19.890;2022-11-20T09:50:53;10.07;;;7.20;;
66727;SDS011;53641;44.274;19.890;2022-11-20T09:53:30;10.73;;;7.57;;
66727;SDS011;53641;44.274;19.890;2022-11-20T09:56:08;11.32;;;8.18;;
66727;SDS011;53641;44.274;19.890;2022-11-20T09:58:40;12.50;;;8.97;;
66727;SDS011;53641;44.274;19.890;2022-11-20T10:01:12;13.07;;;8.75;;
66727;SDS011;53641;44.274;19.890;2022-11-20T10:03:54;13.98;;;9.27;;
66727;SDS011;53641;44.274;19.890;2022-11-20T10:06:28;11.80;;;8.32;;
66727;SDS011;53641;44.274;19.890;2022-11-20T10:09:01;17.73;;;11.40;;
66727;SDS011;53641;44.274;19.890;2022-11-20T10:11:52;22.38;;;13.20;;
66727;SDS011;53641;44.274;19.890;2022-11-20T10:14:31;18.25;;;11.52;;
66727;SDS011;53641;44.274;19.890;2022-11-20T10:17:19;18.05;;;12.00;;
66727;SDS011;53641;44.274;19.890;2022-11-20T10:20:00;17.42;;;11.70;;
66727;SDS011;53641;44.274;19.890;2022-11-20T10:22:51;12.98;;;9.35;;
66727;SDS011;53641;44.274;19.890;2022-11-20T10:25:42;18.23;;;10.82;;
66727;SDS011;53641;44.274;19.890;2022-11-20T10:28:32;17.88;;;10.70;;
66727;SDS011;53641;44.274;19.890;2022-11-20T10:31:09;14.25;;;9.55;;
66727;SDS011;53641;44.274;19.890;2022-11-20T10:33:41;15.38;;;9.43;;
66727;SDS011;53641;44.274;19.890;2022-11-20T10:36:27;16.40;;;10.90;;
66727;SDS011;53641;44.274;19.890;2022-11-20T10:39:00;16.02;;;9.45;;
66727;SDS011;53641;44.274;19.890;2022-11-20T10:41:36;13.90;;;9.55;;
66727;SDS011;53641;44.274;19.890;2022-11-20T10:44:20;13.18;;;9.48;;
66727;SDS011;53641;44.274;19.890;2022-11-20T10:47:11;11.05;;;8.02;;
66727;SDS011;53641;44.274;19.890;2022-11-20T10:49:39;15.50;;;10.02;;
66727;SDS011;53641;44.274;19.890;2022-11-20T10:52:18;15.90;;;10.43;;
66727;SDS011;53641;44.274;19.890;2022-11-20T10:55:10;19.27;;;12.40;;
66727;SDS011;53641;44.274;19.890;2022-11-20T10:57:50;19.75;;;13.73;;
66727;SDS011;53641;44.274;19.890;2022-11-20T11:00:20;13.13;;;9.10;;
66727;SDS011;53641;44.274;19.890;2022-11-20T11:02:50;10.07;;;6.82;;
66727;SDS011;53641;44.274;19.890;2022-11-20T11:05:25;12.30;;;6.93;;
66727;SDS011;53641;44.274;19.890;2022-11-20T11:07:57;10.60;;;7.82;;
66727;SDS011;53641;44.274;19.890;2022-11-20T11:10:24;15.77;;;9.60;;
66727;SDS011;53641;44.274;19.890;2022-11-20T11:13:01;16.38;;;10.73;;
66727;SDS011;53641;44.274;19.890;2022-11-20T11:15:39;16.25;;;9.95;;
66727;SDS011;53641;44.274;19.890;2022-11-20T11:18:09;18.33;;;11.43;;
66727;SDS011;53641;44.274;19.890;2022-11-20T11:20:36;16.30;;;9.48;;
66727;SDS011;53641;44.274;19.890;2022-11-20T11:23:03;18.63;;;11.65;;
66727;SDS011;53641;44.274;19.890;2022-11-20T11:25:30;14.38;;;9.35;;
66727;SDS011;53641;44.274;19.890;2022-11-20T11:28:04;14.32;;;8.90;;
66727;SDS011;53641;44.274;19.890;2022-11-20T11:30:44;15.98;;;10.10;;
66727;SDS011;53641;44.274;19.890;2022-11-20T11:33:11;18.13;;;11.18;;
66727;SDS011;53641;44.274;19.890;2022-11-20T11:36:16;24.58;;;14.82;;
66727;SDS011;53641;44.274;19.890;2022-11-20T11:38:44;23.45;;;14.50;;
66727;SDS011;53641;44.274;19.890;2022-11-20T11:41:15;23.20;;;14.07;;
66727;SDS011;53641;44.274;19.890;2022-11-20T11:43:57;30.73;;;19.55;;
66727;SDS011;53641;44.274;19.890;2022-11-20T11:46:50;31.92;;;17.88;;
66727;SDS011;53641;44.274;19.890;2022-11-20T11:49:20;40.33;;;20.92;;
66727;SDS011;53641;44.274;19.890;2022-11-20T11:54:52;42.30;;;21.88;;
66727;SDS011;53641;44.274;19.890;2022-11-20T11:57:23;32.88;;;18.38;;
66727;SDS011;53641;44.274;19.890;2022-11-20T12:00:00;34.05;;;18.55;;
66727;SDS011;53641;44.274;19.890;2022-11-20T12:02:35;22.80;;;13.52;;
66727;SDS011;53641;44.274;19.890;2022-11-20T12:05:24;10.18;;;7.40;;
66727;SDS011;53641;44.274;19.890;2022-11-20T12:09:10;12.32;;;7.72;;
66727;SDS011;53641;44.274;19.890;2022-11-20T12:10:50;11.80;;;8.05;;
66727;SDS011;53641;44.274;19.890;2022-11-20T12:13:34;13.02;;;8.98;;
66727;SDS011;53641;44.274;19.890;2022-11-20T12:16:09;15.52;;;9.55;;
66727;SDS011;53641;44.274;19.890;2022-11-20T12:18:40;14.32;;;8.68;;
66727;SDS011;53641;44.274;19.890;2022-11-20T12:21:26;14.57;;;9.55;;
66727;SDS011;53641;44.274;19.890;2022-11-20T12:24:05;14.77;;;9.52;;
66727;SDS011;53641;44.274;19.890;2022-11-20T12:26:42;15.82;;;9.65;;
66727;SDS011;53641;44.274;19.890;2022-11-20T12:29:29;18.80;;;11.57;;
66727;SDS011;53641;44.274;19.890;2022-11-20T12:33:44;21.08;;;13.75;;
66727;SDS011;53641;44.274;19.890;2022-11-20T12:36:16;16.48;;;10.95;;
66727;SDS011;53641;44.274;19.890;2022-11-20T12:38:33;14.02;;;9.60;;
66727;SDS011;53641;44.274;19.890;2022-11-20T12:41:35;18.33;;;11.07;;
66727;SDS011;53641;44.274;19.890;2022-11-20T12:45:27;13.35;;;8.90;;
66727;SDS011;53641;44.274;19.890;2022-11-20T12:48:32;14.57;;;8.65;;
66727;SDS011;53641;44.274;19.890;2022-11-20T12:50:47;11.25;;;7.70;;
66727;SDS011;53641;44.274;19.890;2022-11-20T12:53:41;10.70;;;7.35;;
66727;SDS011;53641;44.274;19.890;2022-11-20T12:56:22;10.45;;;7.18;;
66727;SDS011;53641;44.274;19.890;2022-11-20T12:59:08;11.75;;;7.25;;
66727;SDS011;53641;44.274;19.890;2022-11-20T13:02:09;11.57;;;8.35;;
66727;SDS011;53641;44.274;19.890;2022-11-20T13:04:57;18.20;;;8.98;;
66727;SDS011;53641;44.274;19.890;2022-11-20T13:07:29;18.58;;;10.25;;
66727;SDS011;53641;44.274;19.890;2022-11-20T13:09:56;17.98;;;10.80;;
66727;SDS011;53641;44.274;19.890;2022-11-20T13:12:31;17.05;;;9.60;;
66727;SDS011;53641;44.274;19.890;2022-11-20T13:15:40;18.05;;;10.98;;
66727;SDS011;53641;44.274;19.890;2022-11-20T13:18:04;19.40;;;12.32;;
66727;SDS011;53641;44.274;19.890;2022-11-20T13:20:33;14.60;;;9.23;;
66727;SDS011;53641;44.274;19.890;2022-11-20T13:23:01;14.30;;;8.60;;
66727;SDS011;53641;44.274;19.890;2022-11-20T13:25:28;15.32;;;9.60;;
66727;SDS011;53641;44.274;19.890;2022-11-20T13:27:55;17.17;;;10.60;;
66727;SDS011;53641;44.274;19.890;2022-11-20T13:30:24;19.70;;;11.60;;
66727;SDS011;53641;44.274;19.890;2022-11-20T13:32:55;17.92;;;11.13;;
66727;SDS011;53641;44.274;19.890;2022-11-20T13:35:25;16.60;;;10.75;;
66727;SDS011;53641;44.274;19.890;2022-11-20T13:38:05;13.45;;;8.23;;
66727;SDS011;53641;44.274;19.890;2022-11-20T13:40:55;18.67;;;11.10;;
66727;SDS011;53641;44.274;19.890;2022-11-20T13:43:36;22.90;;;13.82;;
66727;SDS011;53641;44.274;19.890;2022-11-20T13:46:09;20.15;;;10.52;;
66727;SDS011;53641;44.274;19.890;2022-11-20T13:48:45;22.48;;;13.20;;
66727;SDS011;53641;44.274;19.890;2022-11-20T13:51:21;12.93;;;8.55;;
66727;SDS011;53641;44.274;19.890;2022-11-20T13:54:19;14.25;;;9.35;;
66727;SDS011;53641;44.274;19.890;2022-11-20T13:57:39;17.35;;;11.05;;
66727;SDS011;53641;44.274;19.890;2022-11-20T13:59:57;17.77;;;11.57;;
66727;SDS011;53641;44.274;19.890;2022-11-20T14:02:26;15.23;;;10.10;;
66727;SDS011;53641;44.274;19.890;2022-11-20T14:04:57;16.10;;;10.18;;
66727;SDS011;53641;44.274;19.890;2022-11-20T14:07:27;13.07;;;8.68;;
66727;SDS011;53641;44.274;19.890;2022-11-20T14:09:59;13.00;;;8.82;;
66727;SDS011;53641;44.274;19.890;2022-11-20T14:12:29;16.42;;;10.52;;
66727;SDS011;53641;44.274;19.890;2022-11-20T14:14:57;19.38;;;12.13;;
66727;SDS011;53641;44.274;19.890;2022-11-20T14:17:29;19.48;;;12.68;;
66727;SDS011;53641;44.274;19.890;2022-11-20T14:19:58;22.58;;;14.85;;
66727;SDS011;53641;44.274;19.890;2022-11-20T14:22:27;17.42;;;10.60;;
66727;SDS011;53641;44.274;19.890;2022-11-20T14:25:14;15.15;;;9.70;;
66727;SDS011;53641;44.274;19.890;2022-11-20T14:27:53;12.85;;;9.10;;
66727;SDS011;53641;44.274;19.890;2022-11-20T14:30:21;15.35;;;9.27;;
66727;SDS011;53641;44.274;19.890;2022-11-20T14:32:49;16.25;;;10.63;;
66727;SDS011;53641;44.274;19.890;2022-11-20T14:35:27;18.13;;;12.63;;
66727;SDS011;53641;44.274;19.890;2022-11-20T14:37:55;22.88;;;13.75;;
66727;SDS011;53641;44.274;19.890;2022-11-20T14:40:26;22.42;;;15.13;;
66727;SDS011;53641;44.274;19.890;2022-11-20T14:42:54;23.50;;;15.57;;
66727;SDS011;53641;44.274;19.890;2022-11-20T14:45:20;20.15;;;13.02;;
66727;SDS011;53641;44.274;19.890;2022-11-20T14:47:47;17.80;;;12.05;;